sensor_id;sensor_type;location;lat;lon;timestamp;temperature;humidity
18339;DHT22;9295;44.484;11.240;2023-03-23T00:02:27;11.90;99.90
18339;DHT22;9295;44.484;11.240;2023-03-23T00:04:55;11.90;99.90
18339;DHT22;9295;44.484;11.240;2023-03-23T00:07:23;11.90;99.90
18339;DHT22;9295;44.484;11.240;2023-03-23T00:09:54;11.90;99.90
18339;DHT22;9295;44.484;11.240;2023-03-23T00:12:23;11.90;99.90
18339;DHT22;9295;44.484;11.240;2023-03-23T00:14:55;11.80;99.90
18339;DHT22;9295;44.484;11.240;2023-03-23T00:17:22;11.80;99.90
18339;DHT22;9295;44.484;11.240;2023-03-23T00:19:52;11.80;99.90
18339;DHT22;9295;44.484;11.240;2023-03-23T00:22:19;11.80;99.90
18339;DHT22;9295;44.484;11.240;2023-03-23T00:24:47;11.80;99.90
18339;DHT22;9295;44.484;11.240;2023-03-23T00:27:16;11.80;99.90
18339;DHT22;9295;44.484;11.240;2023-03-23T00:29:44;11.80;99.90
18339;DHT22;9295;44.484;11.240;2023-03-23T00:32:13;11.80;99.90
18339;DHT22;9295;44.484;11.240;2023-03-23T00:34:42;11.80;99.90
18339;DHT22;9295;44.484;11.240;2023-03-23T00:37:13;11.80;99.90
18339;DHT22;9295;44.484;11.240;2023-03-23T00:39:42;11.80;99.90
18339;DHT22;9295;44.484;11.240;2023-03-23T00:42:13;11.70;99.90
18339;DHT22;9295;44.484;11.240;2023-03-23T00:44:41;11.70;99.90
18339;DHT22;9295;44.484;11.240;2023-03-23T00:47:09;11.70;99.90
18339;DHT22;9295;44.484;11.240;2023-03-23T00:49:38;11.60;99.90
18339;DHT22;9295;44.484;11.240;2023-03-23T00:52:07;11.60;99.90
18339;DHT22;9295;44.484;11.240;2023-03-23T00:54:36;11.60;99.90
18339;DHT22;9295;44.484;11.240;2023-03-23T00:57:04;11.60;99.90
18339;DHT22;9295;44.484;11.240;2023-03-23T00:59:32;11.60;99.90
18339;DHT22;9295;44.484;11.240;2023-03-23T01:02:00;11.60;99.90
18339;DHT22;9295;44.484;11.240;2023-03-23T01:04:28;11.60;99.90
18339;DHT22;9295;44.484;11.240;2023-03-23T01:06:57;11.50;99.90
18339;DHT22;9295;44.484;11.240;2023-03-23T01:09:26;11.50;99.90
18339;DHT22;9295;44.484;11.240;2023-03-23T01:11:55;11.50;99.90
18339;DHT22;9295;44.484;11.240;2023-03-23T01:14:23;11.50;99.90
18339;DHT22;9295;44.484;11.240;2023-03-23T01:16:51;11.40;99.90
18339;DHT22;9295;44.484;11.240;2023-03-23T01:19:19;11.40;99.90
18339;DHT22;9295;44.484;11.240;2023-03-23T01:21:46;11.30;99.90
18339;DHT22;9295;44.484;11.240;2023-03-23T01:24:13;11.30;99.90
18339;DHT22;9295;44.484;11.240;2023-03-23T01:26:41;11.30;99.90
18339;DHT22;9295;44.484;11.240;2023-03-23T01:29:10;11.30;99.90
18339;DHT22;9295;44.484;11.240;2023-03-23T01:31:37;11.20;99.90
18339;DHT22;9295;44.484;11.240;2023-03-23T01:34:06;11.20;99.90
18339;DHT22;9295;44.484;11.240;2023-03-23T01:36:34;11.20;99.90
18339;DHT22;9295;44.484;11.240;2023-03-23T01:39:05;11.10;99.90
18339;DHT22;9295;44.484;11.240;2023-03-23T01:41:34;11.00;99.90
18339;DHT22;9295;44.484;11.240;2023-03-23T01:47:22;10.90;99.90
18339;DHT22;9295;44.484;11.240;2023-03-23T01:49:53;10.90;99.90
18339;DHT22;9295;44.484;11.240;2023-03-23T01:52:24;10.90;99.90
18339;DHT22;9295;44.484;11.240;2023-03-23T01:54:58;10.90;99.90
18339;DHT22;9295;44.484;11.240;2023-03-23T01:57:26;10.80;99.90
18339;DHT22;9295;44.484;11.240;2023-03-23T01:59:58;10.80;99.90
18339;DHT22;9295;44.484;11.240;2023-03-23T02:02:42;10.80;99.90
18339;DHT22;9295;44.484;11.240;2023-03-23T02:05:13;10.80;99.90
18339;DHT22;9295;44.484;11.240;2023-03-23T02:07:43;10.80;99.90
18339;DHT22;9295;44.484;11.240;2023-03-23T02:10:11;10.80;99.90
18339;DHT22;9295;44.484;11.240;2023-03-23T02:12:39;10.80;99.90
18339;DHT22;9295;44.484;11.240;2023-03-23T02:15:09;10.70;99.90
18339;DHT22;9295;44.484;11.240;2023-03-23T02:17:46;10.80;99.90
18339;DHT22;9295;44.484;11.240;2023-03-23T02:20:45;10.70;99.90
18339;DHT22;9295;44.484;11.240;2023-03-23T02:26:38;10.70;99.90
18339;DHT22;9295;44.484;11.240;2023-03-23T02:29:37;10.60;99.90
18339;DHT22;9295;44.484;11.240;2023-03-23T02:32:30;10.60;99.90
18339;DHT22;9295;44.484;11.240;2023-03-23T02:35:09;10.60;99.90
18339;DHT22;9295;44.484;11.240;2023-03-23T02:37:40;10.60;99.90
18339;DHT22;9295;44.484;11.240;2023-03-23T02:40:14;10.60;99.90
18339;DHT22;9295;44.484;11.240;2023-03-23T02:42:45;10.60;99.90
18339;DHT22;9295;44.484;11.240;2023-03-23T02:45:16;10.60;99.90
18339;DHT22;9295;44.484;11.240;2023-03-23T02:47:46;10.60;99.90
18339;DHT22;9295;44.484;11.240;2023-03-23T02:50:18;10.60;99.90
18339;DHT22;9295;44.484;11.240;2023-03-23T02:52:48;10.50;99.90
18339;DHT22;9295;44.484;11.240;2023-03-23T02:55:18;10.50;99.90
18339;DHT22;9295;44.484;11.240;2023-03-23T02:57:46;10.50;99.90
18339;DHT22;9295;44.484;11.240;2023-03-23T03:00:16;10.40;99.90
18339;DHT22;9295;44.484;11.240;2023-03-23T03:02:46;10.40;99.90
18339;DHT22;9295;44.484;11.240;2023-03-23T03:05:28;10.50;99.90
18339;DHT22;9295;44.484;11.240;2023-03-23T03:08:06;10.40;99.90
18339;DHT22;9295;44.484;11.240;2023-03-23T03:10:46;10.40;99.90
18339;DHT22;9295;44.484;11.240;2023-03-23T03:13:28;10.30;99.90
18339;DHT22;9295;44.484;11.240;2023-03-23T03:16:06;10.30;99.90
18339;DHT22;9295;44.484;11.240;2023-03-23T03:18:40;10.30;99.90
18339;DHT22;9295;44.484;11.240;2023-03-23T03:21:13;10.30;99.90
18339;DHT22;9295;44.484;11.240;2023-03-23T03:23:45;10.30;99.90
18339;DHT22;9295;44.484;11.240;2023-03-23T03:26:17;10.20;99.90
18339;DHT22;9295;44.484;11.240;2023-03-23T03:28:55;10.20;99.90
18339;DHT22;9295;44.484;11.240;2023-03-23T03:31:27;10.20;99.90
18339;DHT22;9295;44.484;11.240;2023-03-23T03:33:55;10.20;99.90
18339;DHT22;9295;44.484;11.240;2023-03-23T03:36:28;10.20;99.90
18339;DHT22;9295;44.484;11.240;2023-03-23T03:39:06;10.20;99.90
18339;DHT22;9295;44.484;11.240;2023-03-23T03:41:36;10.20;99.90
18339;DHT22;9295;44.484;11.240;2023-03-23T03:44:05;10.20;99.90
18339;DHT22;9295;44.484;11.240;2023-03-23T03:46:34;10.20;99.90
18339;DHT22;9295;44.484;11.240;2023-03-23T03:49:03;10.20;99.90
18339;DHT22;9295;44.484;11.240;2023-03-23T03:51:35;10.10;99.90
18339;DHT22;9295;44.484;11.240;2023-03-23T03:54:04;10.00;99.90
18339;DHT22;9295;44.484;11.240;2023-03-23T03:56:32;10.00;99.90
18339;DHT22;9295;44.484;11.240;2023-03-23T03:59:30;10.00;99.90
18339;DHT22;9295;44.484;11.240;2023-03-23T04:02:31;10.00;99.90
18339;DHT22;9295;44.484;11.240;2023-03-23T04:04:58;10.00;99.90
18339;DHT22;9295;44.484;11.240;2023-03-23T04:07:32;10.00;99.90
18339;DHT22;9295;44.484;11.240;2023-03-23T04:10:00;10.00;99.90
18339;DHT22;9295;44.484;11.240;2023-03-23T04:12:27;9.90;99.90
18339;DHT22;9295;44.484;11.240;2023-03-23T04:14:54;9.90;99.90
18339;DHT22;9295;44.484;11.240;2023-03-23T04:17:27;9.90;99.90
18339;DHT22;9295;44.484;11.240;2023-03-23T04:19:55;9.90;99.90
18339;DHT22;9295;44.484;11.240;2023-03-23T04:22:25;9.90;99.90
18339;DHT22;9295;44.484;11.240;2023-03-23T04:25:00;9.90;99.90
18339;DHT22;9295;44.484;11.240;2023-03-23T04:27:34;9.80;99.90
18339;DHT22;9295;44.484;11.240;2023-03-23T04:30:05;9.80;99.90
18339;DHT22;9295;44.484;11.240;2023-03-23T04:32:33;9.70;99.90
18339;DHT22;9295;44.484;11.240;2023-03-23T04:35:02;9.80;99.90
18339;DHT22;9295;44.484;11.240;2023-03-23T04:37:37;9.80;99.90
18339;DHT22;9295;44.484;11.240;2023-03-23T04:40:08;9.80;99.90
18339;DHT22;9295;44.484;11.240;2023-03-23T04:42:39;9.80;99.90
18339;DHT22;9295;44.484;11.240;2023-03-23T04:45:32;9.70;99.90
18339;DHT22;9295;44.484;11.240;2023-03-23T04:48:00;9.70;99.90
18339;DHT22;9295;44.484;11.240;2023-03-23T04:50:39;9.60;99.90
18339;DHT22;9295;44.484;11.240;2023-03-23T04:53:16;9.60;99.90
18339;DHT22;9295;44.484;11.240;2023-03-23T04:55:46;9.70;99.90
18339;DHT22;9295;44.484;11.240;2023-03-23T04:58:16;9.70;99.90
18339;DHT22;9295;44.484;11.240;2023-03-23T05:01:01;9.60;99.90
18339;DHT22;9295;44.484;11.240;2023-03-23T05:03:31;9.60;99.90
18339;DHT22;9295;44.484;11.240;2023-03-23T05:06:01;9.70;99.90
18339;DHT22;9295;44.484;11.240;2023-03-23T05:08:29;9.70;99.90
18339;DHT22;9295;44.484;11.240;2023-03-23T05:11:00;9.60;99.90
18339;DHT22;9295;44.484;11.240;2023-03-23T05:13:33;9.60;99.90
18339;DHT22;9295;44.484;11.240;2023-03-23T05:16:03;9.60;99.90
18339;DHT22;9295;44.484;11.240;2023-03-23T05:18:32;9.70;99.90
18339;DHT22;9295;44.484;11.240;2023-03-23T05:21:04;9.70;99.90
18339;DHT22;9295;44.484;11.240;2023-03-23T05:23:36;9.80;99.90
18339;DHT22;9295;44.484;11.240;2023-03-23T05:26:14;9.90;99.90
18339;DHT22;9295;44.484;11.240;2023-03-23T05:28:41;10.00;99.90
18339;DHT22;9295;44.484;11.240;2023-03-23T05:31:22;10.10;99.90
18339;DHT22;9295;44.484;11.240;2023-03-23T05:33:50;10.10;99.90
18339;DHT22;9295;44.484;11.240;2023-03-23T05:36:28;10.20;99.90
18339;DHT22;9295;44.484;11.240;2023-03-23T05:39:07;10.20;99.90
18339;DHT22;9295;44.484;11.240;2023-03-23T05:41:55;10.30;99.90
18339;DHT22;9295;44.484;11.240;2023-03-23T05:44:27;10.30;99.90
18339;DHT22;9295;44.484;11.240;2023-03-23T05:46:58;10.40;99.90
18339;DHT22;9295;44.484;11.240;2023-03-23T05:49:26;10.50;99.90
18339;DHT22;9295;44.484;11.240;2023-03-23T05:51:54;10.60;99.90
18339;DHT22;9295;44.484;11.240;2023-03-23T05:54:22;10.70;99.90
18339;DHT22;9295;44.484;11.240;2023-03-23T05:56:50;10.70;99.90
18339;DHT22;9295;44.484;11.240;2023-03-23T05:59:42;10.80;99.90
18339;DHT22;9295;44.484;11.240;2023-03-23T06:02:16;10.80;99.90
18339;DHT22;9295;44.484;11.240;2023-03-23T06:04:43;11.00;99.90
18339;DHT22;9295;44.484;11.240;2023-03-23T06:07:21;11.00;99.90
18339;DHT22;9295;44.484;11.240;2023-03-23T06:09:57;11.20;99.90
18339;DHT22;9295;44.484;11.240;2023-03-23T06:12:25;11.40;99.90
18339;DHT22;9295;44.484;11.240;2023-03-23T06:15:10;11.50;99.90
18339;DHT22;9295;44.484;11.240;2023-03-23T06:18:04;11.80;99.90
18339;DHT22;9295;44.484;11.240;2023-03-23T06:20:49;12.10;99.90
18339;DHT22;9295;44.484;11.240;2023-03-23T06:23:44;12.30;99.90
18339;DHT22;9295;44.484;11.240;2023-03-23T06:26:13;12.70;99.90
18339;DHT22;9295;44.484;11.240;2023-03-23T06:28:44;13.30;99.90
18339;DHT22;9295;44.484;11.240;2023-03-23T06:31:13;13.80;99.90
18339;DHT22;9295;44.484;11.240;2023-03-23T06:33:41;14.50;99.90
18339;DHT22;9295;44.484;11.240;2023-03-23T06:36:31;15.20;99.90
18339;DHT22;9295;44.484;11.240;2023-03-23T06:39:10;15.80;99.90
18339;DHT22;9295;44.484;11.240;2023-03-23T06:41:50;16.40;99.90
18339;DHT22;9295;44.484;11.240;2023-03-23T06:44:18;17.30;99.90
18339;DHT22;9295;44.484;11.240;2023-03-23T06:46:47;18.30;99.90
18339;DHT22;9295;44.484;11.240;2023-03-23T06:49:31;19.50;99.90
18339;DHT22;9295;44.484;11.240;2023-03-23T06:52:08;20.50;99.90
18339;DHT22;9295;44.484;11.240;2023-03-23T06:54:37;21.60;99.90
18339;DHT22;9295;44.484;11.240;2023-03-23T06:57:06;22.00;99.90
18339;DHT22;9295;44.484;11.240;2023-03-23T06:59:34;22.60;99.90
18339;DHT22;9295;44.484;11.240;2023-03-23T07:02:03;23.10;99.90
18339;DHT22;9295;44.484;11.240;2023-03-23T07:04:32;23.90;99.90
18339;DHT22;9295;44.484;11.240;2023-03-23T07:07:08;24.90;99.90
18339;DHT22;9295;44.484;11.240;2023-03-23T07:09:44;26.00;99.50
18339;DHT22;9295;44.484;11.240;2023-03-23T07:12:14;26.80;95.80
18339;DHT22;9295;44.484;11.240;2023-03-23T07:14:46;27.00;92.80
18339;DHT22;9295;44.484;11.240;2023-03-23T07:17:15;26.40;90.90
18339;DHT22;9295;44.484;11.240;2023-03-23T07:19:58;25.30;91.40
18339;DHT22;9295;44.484;11.240;2023-03-23T07:22:26;24.10;93.70
18339;DHT22;9295;44.484;11.240;2023-03-23T07:25:03;23.80;96.00
18339;DHT22;9295;44.484;11.240;2023-03-23T07:27:43;24.70;97.10
18339;DHT22;9295;44.484;11.240;2023-03-23T07:30:12;25.80;95.50
18339;DHT22;9295;44.484;11.240;2023-03-23T07:32:41;26.50;93.90
18339;DHT22;9295;44.484;11.240;2023-03-23T07:35:09;27.10;91.70
18339;DHT22;9295;44.484;11.240;2023-03-23T07:37:44;27.60;89.30
18339;DHT22;9295;44.484;11.240;2023-03-23T07:40:16;27.60;85.60
18339;DHT22;9295;44.484;11.240;2023-03-23T07:42:54;27.70;82.60
18339;DHT22;9295;44.484;11.240;2023-03-23T07:45:42;27.60;80.90
18339;DHT22;9295;44.484;11.240;2023-03-23T07:48:15;27.70;80.00
18339;DHT22;9295;44.484;11.240;2023-03-23T07:50:43;27.00;80.10
18339;DHT22;9295;44.484;11.240;2023-03-23T07:53:12;26.50;81.50
18339;DHT22;9295;44.484;11.240;2023-03-23T07:55:43;26.40;82.90
18339;DHT22;9295;44.484;11.240;2023-03-23T07:58:37;26.40;82.90
18339;DHT22;9295;44.484;11.240;2023-03-23T08:01:05;26.30;83.10
18339;DHT22;9295;44.484;11.240;2023-03-23T08:03:36;26.70;84.10
18339;DHT22;9295;44.484;11.240;2023-03-23T08:06:32;27.30;79.40
18339;DHT22;9295;44.484;11.240;2023-03-23T08:09:14;26.80;75.60
18339;DHT22;9295;44.484;11.240;2023-03-23T08:12:07;25.80;76.90
18339;DHT22;9295;44.484;11.240;2023-03-23T08:14:38;24.80;79.50
18339;DHT22;9295;44.484;11.240;2023-03-23T08:17:25;24.10;79.40
18339;DHT22;9295;44.484;11.240;2023-03-23T08:20:17;23.50;81.50
18339;DHT22;9295;44.484;11.240;2023-03-23T08:23:00;23.40;83.20
18339;DHT22;9295;44.484;11.240;2023-03-23T08:25:48;24.40;81.40
18339;DHT22;9295;44.484;11.240;2023-03-23T08:28:26;25.70;78.40
18339;DHT22;9295;44.484;11.240;2023-03-23T08:30:56;26.50;73.30
18339;DHT22;9295;44.484;11.240;2023-03-23T08:33:59;26.70;69.10
18339;DHT22;9295;44.484;11.240;2023-03-23T08:36:57;26.10;65.70
18339;DHT22;9295;44.484;11.240;2023-03-23T08:40:00;25.30;65.60
18339;DHT22;9295;44.484;11.240;2023-03-23T08:42:36;24.90;67.80
18339;DHT22;9295;44.484;11.240;2023-03-23T08:45:24;24.50;68.20
18339;DHT22;9295;44.484;11.240;2023-03-23T08:48:01;23.90;68.70
18339;DHT22;9295;44.484;11.240;2023-03-23T08:50:40;23.60;70.90
18339;DHT22;9295;44.484;11.240;2023-03-23T08:53:12;23.30;72.20
18339;DHT22;9295;44.484;11.240;2023-03-23T08:56:05;23.30;72.90
18339;DHT22;9295;44.484;11.240;2023-03-23T08:58:46;23.10;74.40
18339;DHT22;9295;44.484;11.240;2023-03-23T09:01:30;22.90;74.70
18339;DHT22;9295;44.484;11.240;2023-03-23T09:04:13;22.90;74.40
18339;DHT22;9295;44.484;11.240;2023-03-23T09:06:50;22.80;74.60
18339;DHT22;9295;44.484;11.240;2023-03-23T09:09:19;22.70;75.10
18339;DHT22;9295;44.484;11.240;2023-03-23T09:11:46;22.50;75.10
18339;DHT22;9295;44.484;11.240;2023-03-23T09:14:14;22.40;74.60
18339;DHT22;9295;44.484;11.240;2023-03-23T09:16:41;22.30;74.40
18339;DHT22;9295;44.484;11.240;2023-03-23T09:19:27;22.10;75.80
18339;DHT22;9295;44.484;11.240;2023-03-23T09:21:55;22.00;78.00
18339;DHT22;9295;44.484;11.240;2023-03-23T09:24:23;22.10;77.70
18339;DHT22;9295;44.484;11.240;2023-03-23T09:26:51;22.10;78.30
18339;DHT22;9295;44.484;11.240;2023-03-23T09:29:18;22.10;79.10
18339;DHT22;9295;44.484;11.240;2023-03-23T09:31:47;22.10;79.00
18339;DHT22;9295;44.484;11.240;2023-03-23T09:34:14;22.00;77.90
18339;DHT22;9295;44.484;11.240;2023-03-23T09:36:42;21.90;78.10
18339;DHT22;9295;44.484;11.240;2023-03-23T09:39:10;21.80;77.00
18339;DHT22;9295;44.484;11.240;2023-03-23T09:41:58;21.70;78.30
18339;DHT22;9295;44.484;11.240;2023-03-23T09:44:34;21.70;79.30
18339;DHT22;9295;44.484;11.240;2023-03-23T09:47:08;21.80;78.10
18339;DHT22;9295;44.484;11.240;2023-03-23T09:49:40;22.00;78.10
18339;DHT22;9295;44.484;11.240;2023-03-23T09:52:13;22.30;78.80
18339;DHT22;9295;44.484;11.240;2023-03-23T09:54:43;22.50;78.30
18339;DHT22;9295;44.484;11.240;2023-03-23T09:57:16;22.60;76.60
18339;DHT22;9295;44.484;11.240;2023-03-23T09:59:49;22.50;75.30
18339;DHT22;9295;44.484;11.240;2023-03-23T10:02:21;22.40;76.80
18339;DHT22;9295;44.484;11.240;2023-03-23T10:04:54;22.40;77.80
18339;DHT22;9295;44.484;11.240;2023-03-23T10:07:24;22.30;77.80
18339;DHT22;9295;44.484;11.240;2023-03-23T10:09:55;22.20;77.90
18339;DHT22;9295;44.484;11.240;2023-03-23T10:12:31;22.20;78.50
18339;DHT22;9295;44.484;11.240;2023-03-23T10:15:11;22.30;78.90
18339;DHT22;9295;44.484;11.240;2023-03-23T10:17:46;22.40;78.90
18339;DHT22;9295;44.484;11.240;2023-03-23T10:20:24;22.30;79.70
18339;DHT22;9295;44.484;11.240;2023-03-23T10:22:59;22.40;80.60
18339;DHT22;9295;44.484;11.240;2023-03-23T10:25:31;22.40;80.10
18339;DHT22;9295;44.484;11.240;2023-03-23T10:28:06;22.50;80.50
18339;DHT22;9295;44.484;11.240;2023-03-23T10:30:37;22.50;80.20
18339;DHT22;9295;44.484;11.240;2023-03-23T10:33:11;22.50;80.50
18339;DHT22;9295;44.484;11.240;2023-03-23T10:35:43;22.40;81.70
18339;DHT22;9295;44.484;11.240;2023-03-23T10:38:15;22.40;80.80
18339;DHT22;9295;44.484;11.240;2023-03-23T10:40:49;22.40;80.80
18339;DHT22;9295;44.484;11.240;2023-03-23T10:43:20;22.40;82.40
18339;DHT22;9295;44.484;11.240;2023-03-23T10:45:51;22.40;82.70
18339;DHT22;9295;44.484;11.240;2023-03-23T10:48:25;22.50;82.20
18339;DHT22;9295;44.484;11.240;2023-03-23T10:50:55;22.40;83.30
18339;DHT22;9295;44.484;11.240;2023-03-23T10:53:32;22.40;82.50
18339;DHT22;9295;44.484;11.240;2023-03-23T10:56:02;22.40;84.10
18339;DHT22;9295;44.484;11.240;2023-03-23T10:58:32;22.50;82.90
18339;DHT22;9295;44.484;11.240;2023-03-23T11:01:01;22.50;83.20
18339;DHT22;9295;44.484;11.240;2023-03-23T11:03:40;22.40;82.90
18339;DHT22;9295;44.484;11.240;2023-03-23T11:06:10;22.40;82.80
18339;DHT22;9295;44.484;11.240;2023-03-23T11:08:48;22.30;83.40
18339;DHT22;9295;44.484;11.240;2023-03-23T11:11:18;22.20;83.20
18339;DHT22;9295;44.484;11.240;2023-03-23T11:13:50;22.10;83.70
18339;DHT22;9295;44.484;11.240;2023-03-23T11:16:25;22.00;83.90
18339;DHT22;9295;44.484;11.240;2023-03-23T11:18:54;22.00;84.60
18339;DHT22;9295;44.484;11.240;2023-03-23T11:21:23;22.10;84.70
18339;DHT22;9295;44.484;11.240;2023-03-23T11:23:52;22.10;85.70
18339;DHT22;9295;44.484;11.240;2023-03-23T11:26:22;22.20;86.00
18339;DHT22;9295;44.484;11.240;2023-03-23T11:28:57;22.20;86.10
18339;DHT22;9295;44.484;11.240;2023-03-23T11:31:28;22.30;85.90
18339;DHT22;9295;44.484;11.240;2023-03-23T11:33:58;22.30;86.20
18339;DHT22;9295;44.484;11.240;2023-03-23T11:36:33;22.30;86.40
18339;DHT22;9295;44.484;11.240;2023-03-23T11:39:01;22.30;87.10
18339;DHT22;9295;44.484;11.240;2023-03-23T11:41:33;22.30;87.20
18339;DHT22;9295;44.484;11.240;2023-03-23T11:44:10;22.40;86.80
18339;DHT22;9295;44.484;11.240;2023-03-23T11:46:45;22.50;86.40
18339;DHT22;9295;44.484;11.240;2023-03-23T11:49:22;22.50;86.40
18339;DHT22;9295;44.484;11.240;2023-03-23T11:51:54;22.60;85.80
18339;DHT22;9295;44.484;11.240;2023-03-23T11:54:28;22.60;86.90
18339;DHT22;9295;44.484;11.240;2023-03-23T11:56:57;22.70;85.90
18339;DHT22;9295;44.484;11.240;2023-03-23T11:59:31;22.70;86.60
18339;DHT22;9295;44.484;11.240;2023-03-23T12:02:17;22.70;86.60
18339;DHT22;9295;44.484;11.240;2023-03-23T12:05:25;22.80;86.30
18339;DHT22;9295;44.484;11.240;2023-03-23T12:08:05;22.70;85.90
18339;DHT22;9295;44.484;11.240;2023-03-23T12:10:39;22.70;86.30
18339;DHT22;9295;44.484;11.240;2023-03-23T12:13:26;22.70;86.20
18339;DHT22;9295;44.484;11.240;2023-03-23T12:16:02;22.50;87.00
18339;DHT22;9295;44.484;11.240;2023-03-23T12:18:44;22.50;87.90
18339;DHT22;9295;44.484;11.240;2023-03-23T12:21:21;22.40;87.90
18339;DHT22;9295;44.484;11.240;2023-03-23T12:24:02;22.30;87.90
18339;DHT22;9295;44.484;11.240;2023-03-23T12:26:31;22.20;88.20
18339;DHT22;9295;44.484;11.240;2023-03-23T12:29:17;21.90;88.80
18339;DHT22;9295;44.484;11.240;2023-03-23T12:31:59;21.80;89.60
18339;DHT22;9295;44.484;11.240;2023-03-23T12:34:36;21.90;90.00
18339;DHT22;9295;44.484;11.240;2023-03-23T12:37:21;21.90;90.10
18339;DHT22;9295;44.484;11.240;2023-03-23T12:40:10;21.80;90.40
18339;DHT22;9295;44.484;11.240;2023-03-23T12:42:49;21.90;90.00
18339;DHT22;9295;44.484;11.240;2023-03-23T12:45:24;22.00;90.20
18339;DHT22;9295;44.484;11.240;2023-03-23T12:48:16;22.10;90.00
18339;DHT22;9295;44.484;11.240;2023-03-23T12:50:58;22.30;89.30
18339;DHT22;9295;44.484;11.240;2023-03-23T12:53:30;22.30;89.10
18339;DHT22;9295;44.484;11.240;2023-03-23T12:56:09;22.30;89.10
18339;DHT22;9295;44.484;11.240;2023-03-23T12:58:42;22.30;89.50
18339;DHT22;9295;44.484;11.240;2023-03-23T13:01:14;22.20;89.70
18339;DHT22;9295;44.484;11.240;2023-03-23T13:03:52;22.10;90.10
18339;DHT22;9295;44.484;11.240;2023-03-23T13:06:25;22.10;90.10
18339;DHT22;9295;44.484;11.240;2023-03-23T13:09:03;22.20;90.60
18339;DHT22;9295;44.484;11.240;2023-03-23T13:11:33;22.30;90.10
18339;DHT22;9295;44.484;11.240;2023-03-23T13:14:11;22.30;90.20
18339;DHT22;9295;44.484;11.240;2023-03-23T13:16:47;22.30;90.30
18339;DHT22;9295;44.484;11.240;2023-03-23T13:19:24;22.20;90.40
18339;DHT22;9295;44.484;11.240;2023-03-23T13:21:57;22.20;90.70
18339;DHT22;9295;44.484;11.240;2023-03-23T13:24:49;22.20;90.70
18339;DHT22;9295;44.484;11.240;2023-03-23T13:27:17;22.10;90.50
18339;DHT22;9295;44.484;11.240;2023-03-23T13:29:45;22.00;91.20
18339;DHT22;9295;44.484;11.240;2023-03-23T13:32:16;21.90;91.90
18339;DHT22;9295;44.484;11.240;2023-03-23T13:34:46;21.80;92.20
18339;DHT22;9295;44.484;11.240;2023-03-23T13:37:21;21.80;92.50
18339;DHT22;9295;44.484;11.240;2023-03-23T13:39:52;21.70;92.60
18339;DHT22;9295;44.484;11.240;2023-03-23T13:42:23;21.60;92.70
18339;DHT22;9295;44.484;11.240;2023-03-23T13:45:08;21.60;93.00
18339;DHT22;9295;44.484;11.240;2023-03-23T13:47:39;21.60;93.10
18339;DHT22;9295;44.484;11.240;2023-03-23T13:50:26;21.40;93.50
18339;DHT22;9295;44.484;11.240;2023-03-23T13:52:59;21.30;93.80
18339;DHT22;9295;44.484;11.240;2023-03-23T13:55:40;21.30;93.90
18339;DHT22;9295;44.484;11.240;2023-03-23T13:58:21;21.30;94.00
18339;DHT22;9295;44.484;11.240;2023-03-23T14:01:00;21.40;93.80
18339;DHT22;9295;44.484;11.240;2023-03-23T14:03:35;21.40;93.60
18339;DHT22;9295;44.484;11.240;2023-03-23T14:06:07;21.40;93.50
18339;DHT22;9295;44.484;11.240;2023-03-23T14:09:04;21.10;93.70
18339;DHT22;9295;44.484;11.240;2023-03-23T14:11:32;21.10;94.10
18339;DHT22;9295;44.484;11.240;2023-03-23T14:14:14;21.10;94.00
18339;DHT22;9295;44.484;11.240;2023-03-23T14:16:44;21.00;94.50
18339;DHT22;9295;44.484;11.240;2023-03-23T14:19:18;20.90;94.40
18339;DHT22;9295;44.484;11.240;2023-03-23T14:21:53;20.90;94.20
18339;DHT22;9295;44.484;11.240;2023-03-23T14:24:22;21.00;94.70
18339;DHT22;9295;44.484;11.240;2023-03-23T14:26:52;20.90;94.40
18339;DHT22;9295;44.484;11.240;2023-03-23T14:29:21;20.80;94.80
18339;DHT22;9295;44.484;11.240;2023-03-23T14:31:55;20.70;95.20
18339;DHT22;9295;44.484;11.240;2023-03-23T14:34:25;20.70;95.50
18339;DHT22;9295;44.484;11.240;2023-03-23T14:36:55;20.70;95.50
18339;DHT22;9295;44.484;11.240;2023-03-23T14:39:24;20.70;95.70
18339;DHT22;9295;44.484;11.240;2023-03-23T14:41:54;20.70;96.00
18339;DHT22;9295;44.484;11.240;2023-03-23T14:44:24;20.60;96.00
18339;DHT22;9295;44.484;11.240;2023-03-23T14:46:54;20.50;96.20
18339;DHT22;9295;44.484;11.240;2023-03-23T14:49:29;20.50;96.70
18339;DHT22;9295;44.484;11.240;2023-03-23T14:52:07;20.60;96.80
18339;DHT22;9295;44.484;11.240;2023-03-23T14:54:35;20.60;96.50
18339;DHT22;9295;44.484;11.240;2023-03-23T14:57:11;20.50;96.50
18339;DHT22;9295;44.484;11.240;2023-03-23T14:59:40;20.50;96.80
18339;DHT22;9295;44.484;11.240;2023-03-23T15:02:12;20.40;97.00
18339;DHT22;9295;44.484;11.240;2023-03-23T15:04:40;20.40;97.00
18339;DHT22;9295;44.484;11.240;2023-03-23T15:07:12;20.30;97.20
18339;DHT22;9295;44.484;11.240;2023-03-23T15:09:42;20.30;97.50
18339;DHT22;9295;44.484;11.240;2023-03-23T15:12:20;20.40;97.50
18339;DHT22;9295;44.484;11.240;2023-03-23T15:14:49;20.50;97.70
18339;DHT22;9295;44.484;11.240;2023-03-23T15:17:19;20.60;97.60
18339;DHT22;9295;44.484;11.240;2023-03-23T15:19:48;20.60;97.60
18339;DHT22;9295;44.484;11.240;2023-03-23T15:22:21;20.70;97.80
18339;DHT22;9295;44.484;11.240;2023-03-23T15:24:51;20.80;98.00
18339;DHT22;9295;44.484;11.240;2023-03-23T15:27:25;20.90;97.90
18339;DHT22;9295;44.484;11.240;2023-03-23T15:29:55;20.90;97.80
18339;DHT22;9295;44.484;11.240;2023-03-23T15:32:25;21.00;97.70
18339;DHT22;9295;44.484;11.240;2023-03-23T15:34:54;21.10;97.40
18339;DHT22;9295;44.484;11.240;2023-03-23T15:37:26;21.20;97.50
18339;DHT22;9295;44.484;11.240;2023-03-23T15:39:55;21.20;97.50
18339;DHT22;9295;44.484;11.240;2023-03-23T15:42:26;21.20;97.50
18339;DHT22;9295;44.484;11.240;2023-03-23T15:45:23;21.20;97.50
18339;DHT22;9295;44.484;11.240;2023-03-23T15:47:51;21.30;97.70
18339;DHT22;9295;44.484;11.240;2023-03-23T15:50:20;21.30;97.90
18339;DHT22;9295;44.484;11.240;2023-03-23T15:53:01;21.30;97.90
18339;DHT22;9295;44.484;11.240;2023-03-23T15:55:36;21.20;98.10
18339;DHT22;9295;44.484;11.240;2023-03-23T15:58:10;21.20;98.00
18339;DHT22;9295;44.484;11.240;2023-03-23T16:00:39;21.20;98.30
18339;DHT22;9295;44.484;11.240;2023-03-23T16:03:12;21.10;98.40
18339;DHT22;9295;44.484;11.240;2023-03-23T16:05:41;21.10;98.50
18339;DHT22;9295;44.484;11.240;2023-03-23T16:08:12;21.00;98.20
18339;DHT22;9295;44.484;11.240;2023-03-23T16:10:40;20.90;98.30
18339;DHT22;9295;44.484;11.240;2023-03-23T16:13:10;20.90;98.70
18339;DHT22;9295;44.484;11.240;2023-03-23T16:15:39;20.90;99.00
18339;DHT22;9295;44.484;11.240;2023-03-23T16:18:16;20.80;99.20
18339;DHT22;9295;44.484;11.240;2023-03-23T16:20:45;20.80;99.30
18339;DHT22;9295;44.484;11.240;2023-03-23T16:23:15;20.70;99.30